sensor_id;sensor_type;location;lat;lon;timestamp;P1;durP1;ratioP1;P2;durP2;ratioP2
1346;SDS011;667;48.796;9.480;2022-09-23T00:00:27;3.37;;;3.10;;
1346;SDS011;667;48.796;9.480;2022-09-23T00:02:53;3.57;;;3.30;;
1346;SDS011;667;48.796;9.480;2022-09-23T00:05:19;3.50;;;3.30;;
1346;SDS011;667;48.796;9.480;2022-09-23T00:07:44;3.63;;;3.33;;
1346;SDS011;667;48.796;9.480;2022-09-23T00:10:10;3.60;;;3.30;;
1346;SDS011;667;48.796;9.480;2022-09-23T00:12:35;3.60;;;3.30;;
1346;SDS011;667;48.796;9.480;2022-09-23T00:15:01;3.80;;;3.50;;
1346;SDS011;667;48.796;9.480;2022-09-23T00:17:28;3.78;;;3.10;;
1346;SDS011;667;48.796;9.480;2022-09-23T00:19:55;3.20;;;2.90;;
1346;SDS011;667;48.796;9.480;2022-09-23T00:22:20;3.67;;;3.47;;
1346;SDS011;667;48.796;9.480;2022-09-23T00:24:46;3.63;;;3.33;;
1346;SDS011;667;48.796;9.480;2022-09-23T00:27:12;5.30;;;3.00;;
1346;SDS011;667;48.796;9.480;2022-09-23T00:29:38;3.63;;;3.33;;
1346;SDS011;667;48.796;9.480;2022-09-23T00:32:03;4.03;;;3.50;;
1346;SDS011;667;48.796;9.480;2022-09-23T00:34:29;3.23;;;2.97;;
1346;SDS011;667;48.796;9.480;2022-09-23T00:36:55;3.80;;;3.40;;
1346;SDS011;667;48.796;9.480;2022-09-23T00:39:21;3.05;;;2.85;;
1346;SDS011;667;48.796;9.480;2022-09-23T00:41:47;3.35;;;3.15;;
1346;SDS011;667;48.796;9.480;2022-09-23T00:48:07;3.42;;;3.15;;
1346;SDS011;667;48.796;9.480;2022-09-23T00:53:02;3.95;;;3.65;;
1346;SDS011;667;48.796;9.480;2022-09-23T00:55:43;3.80;;;3.50;;
1346;SDS011;667;48.796;9.480;2022-09-23T00:58:13;3.78;;;3.45;;
1346;SDS011;667;48.796;9.480;2022-09-23T01:00:42;4.18;;;3.80;;
1346;SDS011;667;48.796;9.480;2022-09-23T01:03:10;4.32;;;3.22;;
1346;SDS011;667;48.796;9.480;2022-09-23T01:05:36;3.70;;;3.40;;
1346;SDS011;667;48.796;9.480;2022-09-23T01:08:04;3.85;;;3.50;;
1346;SDS011;667;48.796;9.480;2022-09-23T01:13:23;4.00;;;3.70;;
1346;SDS011;667;48.796;9.480;2022-09-23T01:21:15;3.80;;;3.50;;
1346;SDS011;667;48.796;9.480;2022-09-23T01:35:25;3.42;;;3.17;;
1346;SDS011;667;48.796;9.480;2022-09-23T01:37:22;3.80;;;3.50;;
1346;SDS011;667;48.796;9.480;2022-09-23T01:39:55;3.70;;;3.40;;
1346;SDS011;667;48.796;9.480;2022-09-23T01:42:46;3.97;;;3.58;;
1346;SDS011;667;48.796;9.480;2022-09-23T01:50:59;5.55;;;3.55;;
1346;SDS011;667;48.796;9.480;2022-09-23T01:53:48;4.85;;;3.30;;
1346;SDS011;667;48.796;9.480;2022-09-23T02:01:27;4.78;;;3.30;;
1346;SDS011;667;48.796;9.480;2022-09-23T02:04:02;4.40;;;4.00;;
1346;SDS011;667;48.796;9.480;2022-09-23T02:06:38;3.55;;;3.25;;
1346;SDS011;667;48.796;9.480;2022-09-23T02:09:11;4.20;;;3.80;;
1346;SDS011;667;48.796;9.480;2022-09-23T02:11:41;3.42;;;3.13;;
1346;SDS011;667;48.796;9.480;2022-09-23T02:16:47;3.15;;;2.90;;
1346;SDS011;667;48.796;9.480;2022-09-23T02:21:57;4.05;;;3.20;;
1346;SDS011;667;48.796;9.480;2022-09-23T02:24:33;3.97;;;3.63;;
1346;SDS011;667;48.796;9.480;2022-09-23T02:29:55;3.30;;;3.03;;
1346;SDS011;667;48.796;9.480;2022-09-23T02:32:44;8.90;;;3.60;;
1346;SDS011;667;48.796;9.480;2022-09-23T02:43:19;3.70;;;3.40;;
1346;SDS011;667;48.796;9.480;2022-09-23T02:45:51;3.63;;;3.33;;
1346;SDS011;667;48.796;9.480;2022-09-23T02:48:19;3.50;;;3.27;;
1346;SDS011;667;48.796;9.480;2022-09-23T02:50:58;3.58;;;3.03;;
1346;SDS011;667;48.796;9.480;2022-09-23T02:53:26;3.85;;;3.55;;
1346;SDS011;667;48.796;9.480;2022-09-23T02:55:52;4.32;;;3.92;;
1346;SDS011;667;48.796;9.480;2022-09-23T02:58:18;3.73;;;3.43;;
1346;SDS011;667;48.796;9.480;2022-09-23T03:00:58;4.10;;;3.50;;
1346;SDS011;667;48.796;9.480;2022-09-23T03:03:48;4.07;;;3.50;;
1346;SDS011;667;48.796;9.480;2022-09-23T03:09:15;3.45;;;3.15;;
1346;SDS011;667;48.796;9.480;2022-09-23T03:11:50;4.75;;;3.63;;
1346;SDS011;667;48.796;9.480;2022-09-23T03:14:31;3.38;;;3.17;;
1346;SDS011;667;48.796;9.480;2022-09-23T03:17:41;3.55;;;2.95;;
1346;SDS011;667;48.796;9.480;2022-09-23T03:20:16;4.68;;;3.58;;
1346;SDS011;667;48.796;9.480;2022-09-23T03:22:51;3.60;;;3.30;;
1346;SDS011;667;48.796;9.480;2022-09-23T03:25:21;3.30;;;3.00;;
1346;SDS011;667;48.796;9.480;2022-09-23T03:27:49;4.20;;;3.80;;
1346;SDS011;667;48.796;9.480;2022-09-23T03:30:20;3.97;;;3.67;;
1346;SDS011;667;48.796;9.480;2022-09-23T03:32:46;3.37;;;3.07;;
1346;SDS011;667;48.796;9.480;2022-09-23T03:35:15;3.60;;;3.30;;
1346;SDS011;667;48.796;9.480;2022-09-23T03:37:43;3.70;;;3.40;;
1346;SDS011;667;48.796;9.480;2022-09-23T03:40:30;4.20;;;3.80;;
1346;SDS011;667;48.796;9.480;2022-09-23T03:43:02;3.95;;;3.55;;
1346;SDS011;667;48.796;9.480;2022-09-23T03:45:30;4.20;;;3.80;;
1346;SDS011;667;48.796;9.480;2022-09-23T03:47:57;4.53;;;4.13;;
1346;SDS011;667;48.796;9.480;2022-09-23T03:50:23;4.20;;;3.80;;
1346;SDS011;667;48.796;9.480;2022-09-23T03:52:49;3.38;;;3.17;;
1346;SDS011;667;48.796;9.480;2022-09-23T03:55:15;3.63;;;3.33;;
1346;SDS011;667;48.796;9.480;2022-09-23T03:57:42;3.55;;;3.25;;
1346;SDS011;667;48.796;9.480;2022-09-23T04:00:08;3.08;;;2.83;;
1346;SDS011;667;48.796;9.480;2022-09-23T04:02:35;4.03;;;3.65;;
1346;SDS011;667;48.796;9.480;2022-09-23T04:05:01;3.70;;;3.40;;
1346;SDS011;667;48.796;9.480;2022-09-23T04:07:26;4.70;;;4.30;;
1346;SDS011;667;48.796;9.480;2022-09-23T04:09:52;3.67;;;3.37;;
1346;SDS011;667;48.796;9.480;2022-09-23T04:12:18;3.60;;;3.30;;
1346;SDS011;667;48.796;9.480;2022-09-23T04:14:44;3.30;;;3.10;;
1346;SDS011;667;48.796;9.480;2022-09-23T04:17:10;3.60;;;3.30;;
1346;SDS011;667;48.796;9.480;2022-09-23T04:19:35;3.47;;;3.25;;
1346;SDS011;667;48.796;9.480;2022-09-23T04:22:01;3.33;;;3.03;;
1346;SDS011;667;48.796;9.480;2022-09-23T04:24:27;3.60;;;3.30;;
1346;SDS011;667;48.796;9.480;2022-09-23T04:26:53;3.40;;;2.97;;
1346;SDS011;667;48.796;9.480;2022-09-23T04:29:21;3.80;;;3.50;;
1346;SDS011;667;48.796;9.480;2022-09-23T04:31:47;3.08;;;2.88;;
1346;SDS011;667;48.796;9.480;2022-09-23T04:34:15;4.00;;;3.70;;
1346;SDS011;667;48.796;9.480;2022-09-23T04:36:41;3.40;;;2.85;;
1346;SDS011;667;48.796;9.480;2022-09-23T04:39:09;3.85;;;3.55;;
1346;SDS011;667;48.796;9.480;2022-09-23T04:41:35;4.07;;;3.78;;
1346;SDS011;667;48.796;9.480;2022-09-23T04:44:01;3.93;;;3.63;;
1346;SDS011;667;48.796;9.480;2022-09-23T04:46:27;3.10;;;2.90;;
1346;SDS011;667;48.796;9.480;2022-09-23T04:48:52;3.90;;;3.50;;
1346;SDS011;667;48.796;9.480;2022-09-23T04:51:20;4.68;;;3.50;;
1346;SDS011;667;48.796;9.480;2022-09-23T04:53:48;3.40;;;3.10;;
1346;SDS011;667;48.796;9.480;2022-09-23T04:56:18;4.80;;;3.30;;
1346;SDS011;667;48.796;9.480;2022-09-23T04:58:50;3.63;;;3.35;;
1346;SDS011;667;48.796;9.480;2022-09-23T05:01:18;4.20;;;3.22;;
1346;SDS011;667;48.796;9.480;2022-09-23T05:03:48;3.70;;;3.40;;
1346;SDS011;667;48.796;9.480;2022-09-23T05:06:15;3.38;;;3.08;;
1346;SDS011;667;48.796;9.480;2022-09-23T05:08:41;4.20;;;3.80;;
1346;SDS011;667;48.796;9.480;2022-09-23T05:11:11;3.65;;;3.35;;
1346;SDS011;667;48.796;9.480;2022-09-23T05:13:37;3.63;;;3.33;;
1346;SDS011;667;48.796;9.480;2022-09-23T05:16:03;3.60;;;3.30;;
1346;SDS011;667;48.796;9.480;2022-09-23T05:18:34;4.85;;;3.40;;
1346;SDS011;667;48.796;9.480;2022-09-23T05:21:01;3.65;;;3.30;;
1346;SDS011;667;48.796;9.480;2022-09-23T05:23:27;4.38;;;3.55;;
1346;SDS011;667;48.796;9.480;2022-09-23T05:25:55;3.90;;;3.60;;
1346;SDS011;667;48.796;9.480;2022-09-23T05:28:25;3.83;;;3.53;;
1346;SDS011;667;48.796;9.480;2022-09-23T05:30:59;4.18;;;3.55;;
1346;SDS011;667;48.796;9.480;2022-09-23T05:33:29;4.10;;;3.70;;
1346;SDS011;667;48.796;9.480;2022-09-23T05:35:56;6.05;;;3.88;;
1346;SDS011;667;48.796;9.480;2022-09-23T05:38:21;3.47;;;3.17;;
1346;SDS011;667;48.796;9.480;2022-09-23T05:40:53;3.10;;;2.90;;
1346;SDS011;667;48.796;9.480;2022-09-23T05:43:20;3.67;;;3.38;;
1346;SDS011;667;48.796;9.480;2022-09-23T05:45:46;3.60;;;3.27;;
1346;SDS011;667;48.796;9.480;2022-09-23T05:48:11;3.13;;;2.93;;
1346;SDS011;667;48.796;9.480;2022-09-23T05:50:37;3.43;;;3.13;;
1346;SDS011;667;48.796;9.480;2022-09-23T05:53:02;4.30;;;4.00;;
1346;SDS011;667;48.796;9.480;2022-09-23T05:55:28;4.07;;;3.70;;
1346;SDS011;667;48.796;9.480;2022-09-23T05:57:53;4.23;;;3.83;;
1346;SDS011;667;48.796;9.480;2022-09-23T06:00:19;4.73;;;4.20;;
1346;SDS011;667;48.796;9.480;2022-09-23T06:02:45;5.50;;;5.10;;
1346;SDS011;667;48.796;9.480;2022-09-23T06:05:12;6.65;;;6.07;;
1346;SDS011;667;48.796;9.480;2022-09-23T06:07:39;5.22;;;4.82;;
1346;SDS011;667;48.796;9.480;2022-09-23T06:10:04;4.77;;;4.30;;
1346;SDS011;667;48.796;9.480;2022-09-23T06:12:30;7.10;;;4.50;;
1346;SDS011;667;48.796;9.480;2022-09-23T06:14:58;4.80;;;4.40;;
1346;SDS011;667;48.796;9.480;2022-09-23T06:17:24;5.00;;;4.60;;
1346;SDS011;667;48.796;9.480;2022-09-23T06:19:50;4.40;;;3.80;;
1346;SDS011;667;48.796;9.480;2022-09-23T06:22:15;5.80;;;4.70;;
1346;SDS011;667;48.796;9.480;2022-09-23T06:24:42;5.88;;;5.30;;
1346;SDS011;667;48.796;9.480;2022-09-23T06:27:08;5.53;;;5.03;;
1346;SDS011;667;48.796;9.480;2022-09-23T06:29:33;5.63;;;5.13;;
1346;SDS011;667;48.796;9.480;2022-09-23T06:32:00;8.35;;;6.53;;
1346;SDS011;667;48.796;9.480;2022-09-23T06:34:26;7.00;;;6.32;;
1346;SDS011;667;48.796;9.480;2022-09-23T06:36:51;7.50;;;6.13;;
1346;SDS011;667;48.796;9.480;2022-09-23T06:39:19;6.63;;;6.03;;
1346;SDS011;667;48.796;9.480;2022-09-23T06:41:45;5.87;;;5.37;;
1346;SDS011;667;48.796;9.480;2022-09-23T06:44:10;8.53;;;6.03;;
1346;SDS011;667;48.796;9.480;2022-09-23T06:46:37;6.88;;;6.15;;
1346;SDS011;667;48.796;9.480;2022-09-23T06:49:02;6.30;;;5.70;;
1346;SDS011;667;48.796;9.480;2022-09-23T06:51:28;6.10;;;5.60;;
1346;SDS011;667;48.796;9.480;2022-09-23T06:53:53;6.23;;;5.63;;
1346;SDS011;667;48.796;9.480;2022-09-23T06:56:20;7.13;;;6.53;;
1346;SDS011;667;48.796;9.480;2022-09-23T06:58:46;8.45;;;6.03;;
1346;SDS011;667;48.796;9.480;2022-09-23T07:01:13;7.55;;;6.85;;
1346;SDS011;667;48.796;9.480;2022-09-23T07:03:40;6.88;;;6.28;;
1346;SDS011;667;48.796;9.480;2022-09-23T07:06:07;7.13;;;6.47;;
1346;SDS011;667;48.796;9.480;2022-09-23T07:08:33;7.33;;;6.63;;
1346;SDS011;667;48.796;9.480;2022-09-23T07:11:00;7.40;;;6.60;;
1346;SDS011;667;48.796;9.480;2022-09-23T07:13:28;6.85;;;6.20;;
1346;SDS011;667;48.796;9.480;2022-09-23T07:15:56;6.50;;;5.80;;
1346;SDS011;667;48.796;9.480;2022-09-23T07:18:24;11.70;;;6.93;;
1346;SDS011;667;48.796;9.480;2022-09-23T07:20:51;7.30;;;6.63;;
1346;SDS011;667;48.796;9.480;2022-09-23T07:23:17;7.65;;;6.95;;
1346;SDS011;667;48.796;9.480;2022-09-23T07:25:43;8.13;;;6.50;;
1346;SDS011;667;48.796;9.480;2022-09-23T07:28:15;9.60;;;7.75;;
1346;SDS011;667;48.796;9.480;2022-09-23T07:30:42;7.32;;;6.72;;
1346;SDS011;667;48.796;9.480;2022-09-23T07:33:08;8.50;;;6.43;;
1346;SDS011;667;48.796;9.480;2022-09-23T07:35:37;7.40;;;6.27;;
1346;SDS011;667;48.796;9.480;2022-09-23T07:38:03;6.72;;;6.20;;
1346;SDS011;667;48.796;9.480;2022-09-23T07:40:29;7.00;;;6.10;;
1346;SDS011;667;48.796;9.480;2022-09-23T07:42:54;7.00;;;5.87;;
1346;SDS011;667;48.796;9.480;2022-09-23T07:45:20;7.17;;;6.57;;
1346;SDS011;667;48.796;9.480;2022-09-23T07:47:46;7.43;;;6.83;;
1346;SDS011;667;48.796;9.480;2022-09-23T07:50:12;7.82;;;7.07;;
1346;SDS011;667;48.796;9.480;2022-09-23T07:52:40;6.57;;;5.97;;
1346;SDS011;667;48.796;9.480;2022-09-23T07:55:06;7.18;;;6.47;;
1346;SDS011;667;48.796;9.480;2022-09-23T07:57:32;7.27;;;6.63;;
1346;SDS011;667;48.796;9.480;2022-09-23T07:59:58;6.77;;;6.17;;
1346;SDS011;667;48.796;9.480;2022-09-23T08:02:25;7.50;;;6.70;;
1346;SDS011;667;48.796;9.480;2022-09-23T08:04:50;7.23;;;6.53;;
1346;SDS011;667;48.796;9.480;2022-09-23T08:07:17;7.60;;;6.90;;
1346;SDS011;667;48.796;9.480;2022-09-23T08:09:43;7.33;;;6.67;;
1346;SDS011;667;48.796;9.480;2022-09-23T08:12:10;6.38;;;5.85;;
1346;SDS011;667;48.796;9.480;2022-09-23T08:14:38;6.82;;;6.22;;
1346;SDS011;667;48.796;9.480;2022-09-23T08:17:03;6.67;;;6.07;;
1346;SDS011;667;48.796;9.480;2022-09-23T08:19:29;7.28;;;6.68;;
1346;SDS011;667;48.796;9.480;2022-09-23T08:21:55;6.10;;;5.60;;
1346;SDS011;667;48.796;9.480;2022-09-23T08:24:21;6.95;;;5.90;;
1346;SDS011;667;48.796;9.480;2022-09-23T08:26:48;7.05;;;6.45;;
1346;SDS011;667;48.796;9.480;2022-09-23T08:29:17;7.25;;;6.40;;
1346;SDS011;667;48.796;9.480;2022-09-23T08:31:43;7.60;;;6.85;;
1346;SDS011;667;48.796;9.480;2022-09-23T08:34:10;7.15;;;6.55;;
1346;SDS011;667;48.796;9.480;2022-09-23T08:36:35;7.43;;;6.83;;
1346;SDS011;667;48.796;9.480;2022-09-23T08:39:01;6.23;;;5.73;;
1346;SDS011;667;48.796;9.480;2022-09-23T08:41:39;7.45;;;6.65;;
1346;SDS011;667;48.796;9.480;2022-09-23T08:44:22;6.45;;;5.85;;
1346;SDS011;667;48.796;9.480;2022-09-23T08:49:29;5.93;;;5.43;;
1346;SDS011;667;48.796;9.480;2022-09-23T08:52:00;4.45;;;4.05;;
1346;SDS011;667;48.796;9.480;2022-09-23T08:54:33;5.05;;;4.63;;
1346;SDS011;667;48.796;9.480;2022-09-23T08:56:59;5.10;;;4.70;;
1346;SDS011;667;48.796;9.480;2022-09-23T08:59:34;5.50;;;5.00;;
1346;SDS011;667;48.796;9.480;2022-09-23T09:02:09;5.32;;;4.93;;
1346;SDS011;667;48.796;9.480;2022-09-23T09:04:43;5.43;;;4.90;;
1346;SDS011;667;48.796;9.480;2022-09-23T09:12:48;8.68;;;5.55;;
1346;SDS011;667;48.796;9.480;2022-09-23T09:15:24;6.05;;;5.55;;
1346;SDS011;667;48.796;9.480;2022-09-23T09:20:21;6.20;;;5.70;;
1346;SDS011;667;48.796;9.480;2022-09-23T09:23:11;8.65;;;6.22;;
1346;SDS011;667;48.796;9.480;2022-09-23T09:25:47;5.85;;;5.45;;
1346;SDS011;667;48.796;9.480;2022-09-23T09:28:22;6.97;;;6.45;;
1346;SDS011;667;48.796;9.480;2022-09-23T09:33:49;6.38;;;5.88;;
1346;SDS011;667;48.796;9.480;2022-09-23T09:38:54;5.20;;;4.80;;
1346;SDS011;667;48.796;9.480;2022-09-23T09:41:24;6.50;;;5.90;;
1346;SDS011;667;48.796;9.480;2022-09-23T09:43:52;5.10;;;4.70;;
1346;SDS011;667;48.796;9.480;2022-09-23T09:46:38;5.20;;;4.80;;
1346;SDS011;667;48.796;9.480;2022-09-23T09:49:26;6.45;;;5.15;;
1346;SDS011;667;48.796;9.480;2022-09-23T09:52:10;5.30;;;4.80;;
1346;SDS011;667;48.796;9.480;2022-09-23T09:54:36;5.23;;;4.83;;
1346;SDS011;667;48.796;9.480;2022-09-23T09:57:03;6.70;;;4.43;;
1346;SDS011;667;48.796;9.480;2022-09-23T09:59:31;4.90;;;4.50;;
1346;SDS011;667;48.796;9.480;2022-09-23T10:04:53;5.07;;;4.57;;
1346;SDS011;667;48.796;9.480;2022-09-23T10:07:31;6.50;;;6.00;;
1346;SDS011;667;48.796;9.480;2022-09-23T10:10:10;5.20;;;4.80;;
1346;SDS011;667;48.796;9.480;2022-09-23T10:12:45;4.87;;;4.57;;
1346;SDS011;667;48.796;9.480;2022-09-23T10:15:39;5.70;;;5.20;;
1346;SDS011;667;48.796;9.480;2022-09-23T10:18:15;4.93;;;4.53;;
1346;SDS011;667;48.796;9.480;2022-09-23T10:20:43;4.13;;;3.83;;
1346;SDS011;667;48.796;9.480;2022-09-23T10:23:11;5.60;;;4.50;;
1346;SDS011;667;48.796;9.480;2022-09-23T10:25:41;5.13;;;4.27;;
1346;SDS011;667;48.796;9.480;2022-09-23T10:33:40;4.00;;;3.70;;
1346;SDS011;667;48.796;9.480;2022-09-23T10:36:17;4.60;;;4.13;;
1346;SDS011;667;48.796;9.480;2022-09-23T10:38:43;3.87;;;3.57;;
1346;SDS011;667;48.796;9.480;2022-09-23T10:41:13;4.60;;;4.20;;
1346;SDS011;667;48.796;9.480;2022-09-23T10:44:23;4.00;;;3.67;;
1346;SDS011;667;48.796;9.480;2022-09-23T10:49:50;4.40;;;3.90;;
1346;SDS011;667;48.796;9.480;2022-09-23T10:58:39;4.20;;;3.77;;
1346;SDS011;667;48.796;9.480;2022-09-23T11:01:29;6.17;;;4.13;;
1346;SDS011;667;48.796;9.480;2022-09-23T11:33:51;3.17;;;2.87;;
1346;SDS011;667;48.796;9.480;2022-09-23T11:36:59;4.90;;;3.30;;
1346;SDS011;667;48.796;9.480;2022-09-23T11:39:42;3.47;;;2.57;;
1346;SDS011;667;48.796;9.480;2022-09-23T11:42:13;3.00;;;2.60;;
1346;SDS011;667;48.796;9.480;2022-09-23T11:44:50;2.93;;;2.73;;
1346;SDS011;667;48.796;9.480;2022-09-23T11:47:34;2.90;;;2.70;;
1346;SDS011;667;48.796;9.480;2022-09-23T11:50:16;3.50;;;3.20;;
1346;SDS011;667;48.796;9.480;2022-09-23T11:52:53;3.07;;;2.83;;
1346;SDS011;667;48.796;9.480;2022-09-23T11:55:32;3.13;;;2.80;;
1346;SDS011;667;48.796;9.480;2022-09-23T11:58:08;4.07;;;3.07;;
1346;SDS011;667;48.796;9.480;2022-09-23T12:00:52;3.00;;;2.80;;
1346;SDS011;667;48.796;9.480;2022-09-23T12:03:30;3.03;;;2.73;;
1346;SDS011;667;48.796;9.480;2022-09-23T12:06:14;3.90;;;3.03;;
1346;SDS011;667;48.796;9.480;2022-09-23T12:08:43;2.93;;;2.73;;
1346;SDS011;667;48.796;9.480;2022-09-23T12:14:16;3.30;;;3.00;;
1346;SDS011;667;48.796;9.480;2022-09-23T12:28:26;4.93;;;3.60;;
1346;SDS011;667;48.796;9.480;2022-09-23T12:30:59;3.20;;;2.97;;
1346;SDS011;667;48.796;9.480;2022-09-23T12:33:28;3.97;;;3.13;;
1346;SDS011;667;48.796;9.480;2022-09-23T12:36:09;3.03;;;2.80;;
1346;SDS011;667;48.796;9.480;2022-09-23T12:43:58;4.73;;;3.47;;
1346;SDS011;667;48.796;9.480;2022-09-23T12:46:38;3.47;;;3.17;;
1346;SDS011;667;48.796;9.480;2022-09-23T12:49:05;3.47;;;3.27;;
1346;SDS011;667;48.796;9.480;2022-09-23T12:52:35;4.57;;;3.87;;
1346;SDS011;667;48.796;9.480;2022-09-23T12:54:42;3.30;;;3.00;;
1346;SDS011;667;48.796;9.480;2022-09-23T12:57:12;3.53;;;3.27;;
1346;SDS011;667;48.796;9.480;2022-09-23T13:02:37;2.83;;;2.63;;
1346;SDS011;667;48.796;9.480;2022-09-23T13:05:47;3.63;;;3.33;;
1346;SDS011;667;48.796;9.480;2022-09-23T13:08:38;3.00;;;2.80;;
1346;SDS011;667;48.796;9.480;2022-09-23T13:11:07;3.30;;;3.10;;
1346;SDS011;667;48.796;9.480;2022-09-23T13:13:45;4.60;;;3.50;;
1346;SDS011;667;48.796;9.480;2022-09-23T13:19:57;3.33;;;3.03;;
1346;SDS011;667;48.796;9.480;2022-09-23T13:27:04;10.37;;;9.40;;
1346;SDS011;667;48.796;9.480;2022-09-23T13:29:36;4.67;;;4.27;;
1346;SDS011;667;48.796;9.480;2022-09-23T13:32:18;4.37;;;3.27;;
1346;SDS011;667;48.796;9.480;2022-09-23T13:34:46;3.40;;;3.20;;
1346;SDS011;667;48.796;9.480;2022-09-23T13:37:31;5.23;;;3.23;;
1346;SDS011;667;48.796;9.480;2022-09-23T13:40:24;5.23;;;3.60;;
1346;SDS011;667;48.796;9.480;2022-09-23T13:45:20;4.23;;;3.33;;
1346;SDS011;667;48.796;9.480;2022-09-23T13:47:48;4.63;;;3.37;;
1346;SDS011;667;48.796;9.480;2022-09-23T13:50:18;4.23;;;3.43;;
1346;SDS011;667;48.796;9.480;2022-09-23T13:52:55;3.23;;;3.03;;
1346;SDS011;667;48.796;9.480;2022-09-23T13:55:25;3.17;;;2.87;;
1346;SDS011;667;48.796;9.480;2022-09-23T13:57:58;5.87;;;3.47;;
1346;SDS011;667;48.796;9.480;2022-09-23T14:00:26;4.80;;;3.80;;
1346;SDS011;667;48.796;9.480;2022-09-23T14:02:59;3.90;;;3.60;;
1346;SDS011;667;48.796;9.480;2022-09-23T14:05:25;3.50;;;3.20;;
1346;SDS011;667;48.796;9.480;2022-09-23T14:07:57;4.40;;;4.00;;
1346;SDS011;667;48.796;9.480;2022-09-23T14:10:23;3.90;;;3.60;;
1346;SDS011;667;48.796;9.480;2022-09-23T14:12:51;4.30;;;3.70;;
1346;SDS011;667;48.796;9.480;2022-09-23T14:15:19;4.00;;;3.70;;
1346;SDS011;667;48.796;9.480;2022-09-23T14:17:50;4.70;;;3.20;;
1346;SDS011;667;48.796;9.480;2022-09-23T14:20:19;6.10;;;4.17;;
1346;SDS011;667;48.796;9.480;2022-09-23T14:22:46;5.40;;;3.30;;
1346;SDS011;667;48.796;9.480;2022-09-23T14:25:15;3.90;;;3.60;;
1346;SDS011;667;48.796;9.480;2022-09-23T14:27:42;3.60;;;3.30;;
1346;SDS011;667;48.796;9.480;2022-09-23T14:30:14;3.63;;;3.27;;
1346;SDS011;667;48.796;9.480;2022-09-23T14:32:44;4.73;;;3.50;;
1346;SDS011;667;48.796;9.480;2022-09-23T14:37:40;3.77;;;3.47;;
1346;SDS011;667;48.796;9.480;2022-09-23T14:40:27;4.93;;;3.87;;
1346;SDS011;667;48.796;9.480;2022-09-23T14:43:01;4.83;;;4.13;;
1346;SDS011;667;48.796;9.480;2022-09-23T14:45:30;4.40;;;4.00;;
1346;SDS011;667;48.796;9.480;2022-09-23T14:48:05;4.10;;;3.73;;
1346;SDS011;667;48.796;9.480;2022-09-23T14:50:33;5.10;;;3.97;;
1346;SDS011;667;48.796;9.480;2022-09-23T14:55:54;4.57;;;4.03;;
1346;SDS011;667;48.796;9.480;2022-09-23T15:03:59;3.90;;;3.60;;
1346;SDS011;667;48.796;9.480;2022-09-23T15:06:36;5.10;;;4.13;;
1346;SDS011;667;48.796;9.480;2022-09-23T15:09:03;3.83;;;3.53;;
1346;SDS011;667;48.796;9.480;2022-09-23T15:11:31;3.90;;;3.60;;
1346;SDS011;667;48.796;9.480;2022-09-23T15:13:58;5.13;;;3.70;;
1346;SDS011;667;48.796;9.480;2022-09-23T15:16:26;3.73;;;3.13;;
1346;SDS011;667;48.796;9.480;2022-09-23T15:18:53;6.13;;;3.80;;
1346;SDS011;667;48.796;9.480;2022-09-23T15:21:20;3.80;;;3.40;;
1346;SDS011;667;48.796;9.480;2022-09-23T15:28:41;3.83;;;3.53;;
1346;SDS011;667;48.796;9.480;2022-09-23T15:31:25;3.67;;;3.37;;
1346;SDS011;667;48.796;9.480;2022-09-23T15:33:51;3.70;;;3.40;;
1346;SDS011;667;48.796;9.480;2022-09-23T15:36:20;4.20;;;3.90;;
1346;SDS011;667;48.796;9.480;2022-09-23T15:38:50;3.97;;;3.57;;
1346;SDS011;667;48.796;9.480;2022-09-23T15:41:16;3.90;;;3.60;;
1346;SDS011;667;48.796;9.480;2022-09-23T15:43:43;4.87;;;4.57;;
1346;SDS011;667;48.796;9.480;2022-09-23T15:46:13;4.83;;;4.53;;
1346;SDS011;667;48.796;9.480;2022-09-23T15:48:45;5.23;;;4.77;;
1346;SDS011;667;48.796;9.480;2022-09-23T15:51:20;4.60;;;4.13;;
1346;SDS011;667;48.796;9.480;2022-09-23T15:53:47;3.43;;;3.13;;
1346;SDS011;667;48.796;9.480;2022-09-23T15:56:12;4.10;;;3.43;;
1346;SDS011;667;48.796;9.480;2022-09-23T15:58:38;3.93;;;3.63;;
1346;SDS011;667;48.796;9.480;2022-09-23T16:01:04;4.73;;;3.93;;
1346;SDS011;667;48.796;9.480;2022-09-23T16:03:29;3.60;;;2.97;;
1346;SDS011;667;48.796;9.480;2022-09-23T16:05:58;3.93;;;3.63;;
1346;SDS011;667;48.796;9.480;2022-09-23T16:08:27;3.60;;;3.30;;
1346;SDS011;667;48.796;9.480;2022-09-23T16:10:53;4.97;;;3.90;;
1346;SDS011;667;48.796;9.480;2022-09-23T16:13:20;4.00;;;3.70;;
1346;SDS011;667;48.796;9.480;2022-09-23T16:15:45;4.53;;;3.43;;
1346;SDS011;667;48.796;9.480;2022-09-23T16:18:11;3.87;;;3.57;;
1346;SDS011;667;48.796;9.480;2022-09-23T16:20:38;5.40;;;4.03;;
1346;SDS011;667;48.796;9.480;2022-09-23T16:28:53;3.43;;;3.13;;
1346;SDS011;667;48.796;9.480;2022-09-23T16:31:20;3.90;;;3.57;;
1346;SDS011;667;48.796;9.480;2022-09-23T16:33:49;4.07;;;3.77;;
1346;SDS011;667;48.796;9.480;2022-09-23T16:36:34;5.47;;;3.67;;
1346;SDS011;667;48.796;9.480;2022-09-23T16:39:06;4.07;;;3.63;;
1346;SDS011;667;48.796;9.480;2022-09-23T16:41:34;4.23;;;3.83;;
1346;SDS011;667;48.796;9.480;2022-09-23T16:44:00;7.73;;;3.60;;
1346;SDS011;667;48.796;9.480;2022-09-23T16:46:28;3.80;;;3.50;;
1346;SDS011;667;48.796;9.480;2022-09-23T16:48:55;7.33;;;3.23;;
1346;SDS011;667;48.796;9.480;2022-09-23T16:51:22;6.63;;;3.80;;
1346;SDS011;667;48.796;9.480;2022-09-23T16:53:50;6.10;;;4.77;;
1346;SDS011;667;48.796;9.480;2022-09-23T16:56:18;5.00;;;4.50;;
1346;SDS011;667;48.796;9.480;2022-09-23T16:58:46;4.87;;;4.43;;
1346;SDS011;667;48.796;9.480;2022-09-23T17:01:14;4.93;;;4.43;;
1346;SDS011;667;48.796;9.480;2022-09-23T17:04:06;4.33;;;3.90;;
1346;SDS011;667;48.796;9.480;2022-09-23T17:06:34;4.07;;;3.73;;
1346;SDS011;667;48.796;9.480;2022-09-23T17:09:00;4.10;;;3.70;;
1346;SDS011;667;48.796;9.480;2022-09-23T17:11:26;4.70;;;4.30;;
1346;SDS011;667;48.796;9.480;2022-09-23T17:13:53;4.60;;;4.27;;
1346;SDS011;667;48.796;9.480;2022-09-23T17:16:26;5.33;;;4.90;;
1346;SDS011;667;48.796;9.480;2022-09-23T17:18:54;5.47;;;5.07;;
1346;SDS011;667;48.796;9.480;2022-09-23T17:21:20;4.90;;;4.00;;
1346;SDS011;667;48.796;9.480;2022-09-23T17:23:50;5.70;;;4.30;;
1346;SDS011;667;48.796;9.480;2022-09-23T17:26:16;6.70;;;5.47;;
1346;SDS011;667;48.796;9.480;2022-09-23T17:28:42;5.77;;;5.27;;
1346;SDS011;667;48.796;9.480;2022-09-23T17:31:08;5.00;;;4.60;;
1346;SDS011;667;48.796;9.480;2022-09-23T17:33:34;6.30;;;5.80;;
1346;SDS011;667;48.796;9.480;2022-09-23T17:36:04;6.00;;;5.50;;
1346;SDS011;667;48.796;9.480;2022-09-23T17:38:31;6.70;;;6.10;;
1346;SDS011;667;48.796;9.480;2022-09-23T17:40:58;5.63;;;5.23;;
1346;SDS011;667;48.796;9.480;2022-09-23T17:43:25;4.87;;;4.47;;
1346;SDS011;667;48.796;9.480;2022-09-23T17:45:51;4.43;;;4.03;;
1346;SDS011;667;48.796;9.480;2022-09-23T17:48:18;5.13;;;4.73;;
1346;SDS011;667;48.796;9.480;2022-09-23T17:50:54;7.07;;;5.30;;
1346;SDS011;667;48.796;9.480;2022-09-23T17:53:21;5.03;;;4.53;;
1346;SDS011;667;48.796;9.480;2022-09-23T17:56:21;5.33;;;4.60;;
1346;SDS011;667;48.796;9.480;2022-09-23T17:58:46;5.60;;;5.10;;
1346;SDS011;667;48.796;9.480;2022-09-23T18:01:23;5.10;;;4.60;;
1346;SDS011;667;48.796;9.480;2022-09-23T18:03:53;6.40;;;4.90;;
1346;SDS011;667;48.796;9.480;2022-09-23T18:06:21;5.40;;;4.80;;
1346;SDS011;667;48.796;9.480;2022-09-23T18:08:49;4.80;;;4.40;;
1346;SDS011;667;48.796;9.480;2022-09-23T18:11:19;5.77;;;5.20;;
1346;SDS011;667;48.796;9.480;2022-09-23T18:13:52;5.95;;;5.30;;
1346;SDS011;667;48.796;9.480;2022-09-23T18:16:20;5.60;;;5.10;;
1346;SDS011;667;48.796;9.480;2022-09-23T18:18:54;5.70;;;5.20;;
1346;SDS011;667;48.796;9.480;2022-09-23T18:21:21;5.60;;;5.10;;
1346;SDS011;667;48.796;9.480;2022-09-23T18:23:48;5.60;;;5.10;;
1346;SDS011;667;48.796;9.480;2022-09-23T18:26:15;5.27;;;4.87;;
1346;SDS011;667;48.796;9.480;2022-09-23T18:28:43;5.70;;;5.20;;
1346;SDS011;667;48.796;9.480;2022-09-23T18:31:09;4.88;;;4.47;;
1346;SDS011;667;48.796;9.480;2022-09-23T18:33:35;4.70;;;4.30;;
1346;SDS011;667;48.796;9.480;2022-09-23T18:36:01;4.50;;;3.90;;
1346;SDS011;667;48.796;9.480;2022-09-23T18:38:28;4.53;;;4.13;;
1346;SDS011;667;48.796;9.480;2022-09-23T18:40:54;4.67;;;4.20;;
1346;SDS011;667;48.796;9.480;2022-09-23T18:43:25;4.50;;;4.10;;